Time;durP1;ratioP1;P1;durP2;ratioP2;P2;SDS_P1;SDS_P2;PMS_P1;PMS_P2;Temp;Humidity;BMP_temperature;BMP_pressure;BME280_temperature;BME280_humidity;BME280_pressure;Samples;Min_cycle;Max_cycle;Signal;HPM_P1;HPM_P2
2021/04/01 00:01:07;;;;;;;40.88;23.13;;;;;;;14.08;58.85;101580.53;5017608;28;20045;-66
2021/04/01 00:03:34;;;;;;;41.95;23.58;;;;;;;14.09;58.19;101583.09;5017445;28;20084;-65
2021/04/01 00:06:00;;;;;;;43.17;23.50;;;;;;;14.03;58.66;101579.75;5017450;28;20056;-67
2021/04/01 00:08:26;;;;;;;37.85;21.73;;;;;;;14.03;58.69;101574.50;5023565;28;20046;-65
2021/04/01 00:10:52;;;;;;;41.10;21.25;;;;;;;14.02;58.76;101583.28;5020816;28;20102;-65
2021/04/01 00:16:40;;;;;;;49.38;26.25;;;;;;;14.02;57.10;101572.81;5020181;28;20056;-67
2021/04/01 00:23:17;;;;;;;43.42;24.88;;;;;;;13.91;58.59;101565.16;5017487;28;20044;-66
2021/04/01 00:25:44;;;;;;;51.05;27.05;;;;;;;13.90;58.24;101560.81;5018332;28;20053;-65
2021/04/01 00:28:10;;;;;;;46.53;26.27;;;;;;;13.88;58.00;101558.25;5020423;28;20053;-65
2021/04/01 00:30:36;;;;;;;52.50;27.38;;;;;;;13.88;58.80;101555.63;5016357;28;20421;-65
2021/04/01 00:33:03;;;;;;;51.00;27.60;;;;;;;13.89;57.79;101559.97;5022983;28;20041;-66
2021/04/01 00:35:29;;;;;;;60.85;31.40;;;;;;;13.89;56.69;101562.59;5017266;28;20112;-65
2021/04/01 00:37:56;;;;;;;59.65;31.65;;;;;;;13.87;56.48;101555.69;5018349;28;20494;-66
2021/04/01 00:40:23;;;;;;;57.78;30.30;;;;;;;13.76;56.91;101556.75;5017045;28;20128;-66
2021/04/01 00:42:50;;;;;;;56.63;30.15;;;;;;;13.74;57.21;101552.41;5018646;28;20095;-64
2021/04/01 00:45:31;;;;;;;58.03;29.23;;;;;;;13.70;57.97;101553.38;5016344;28;20060;-66
2021/04/01 00:47:57;;;;;;;55.00;28.63;;;;;;;13.67;58.59;101562.16;5017997;28;20140;-66
2021/04/01 00:50:25;;;;;;;54.17;28.65;;;;;;;13.72;58.81;101556.84;5016477;28;20053;-66
2021/04/01 00:52:52;;;;;;;57.10;31.55;;;;;;;13.71;59.24;101561.19;5016724;28;20050;-67
2021/04/01 00:55:19;;;;;;;57.05;29.10;;;;;;;13.68;58.91;101562.13;5022512;28;20049;-66
2021/04/01 00:57:48;;;;;;;62.90;32.90;;;;;;;13.72;57.28;101555.06;5015026;28;20057;-67
2021/04/01 01:00:18;;;;;;;65.00;32.92;;;;;;;13.65;57.77;101554.31;5017160;28;20054;-66
2021/04/01 01:02:44;;;;;;;57.08;30.23;;;;;;;13.64;57.94;101547.38;5016207;28;20053;-66
2021/04/01 01:11:53;;;;;;;49.30;27.42;;;;;;;13.58;59.33;101544.88;5015755;28;22579;-66
2021/04/01 01:14:19;;;;;;;54.78;29.25;;;;;;;13.57;59.52;101543.16;5016144;28;20045;-66
2021/04/01 01:16:48;;;;;;;52.47;29.17;;;;;;;13.56;59.96;101543.19;5023045;28;20072;-67
2021/04/01 01:19:14;;;;;;;51.45;28.70;;;;;;;13.56;60.90;101543.19;5015719;28;20054;-67
2021/04/01 01:21:40;;;;;;;49.20;28.83;;;;;;;13.58;60.19;101534.41;5016105;28;20054;-67
2021/04/01 01:24:11;;;;;;;55.00;27.40;;;;;;;13.58;59.89;101541.38;5010821;28;20057;-66
2021/04/01 01:26:39;;;;;;;54.15;28.90;;;;;;;13.58;59.88;101542.25;5016041;28;20052;-66
2021/04/01 01:29:05;;;;;;;53.97;26.90;;;;;;;13.58;59.83;101544.00;5015136;28;20091;-66
2021/04/01 01:31:31;;;;;;;50.45;28.35;;;;;;;13.63;59.57;101548.25;5018259;28;20348;-64
2021/04/01 01:33:57;;;;;;;56.08;28.95;;;;;;;13.61;59.88;101550.06;5018809;28;20052;-66
2021/04/01 01:36:23;;;;;;;50.63;27.15;;;;;;;13.60;59.99;101543.09;5018209;28;20045;-65
2021/04/01 01:38:49;;;;;;;48.60;27.80;;;;;;;13.57;60.44;101544.91;5016101;28;20187;-65
2021/04/01 01:41:16;;;;;;;55.05;29.73;;;;;;;13.56;59.94;101544.03;5016461;28;20180;-66
2021/04/01 01:43:42;;;;;;;54.45;28.52;;;;;;;13.54;60.65;101543.19;5011845;28;20049;-66
2021/04/01 01:46:08;;;;;;;54.08;28.45;;;;;;;13.57;60.14;101535.31;5016775;28;20091;-66
2021/04/01 01:48:34;;;;;;;55.97;29.15;;;;;;;13.46;60.79;101530.31;5018532;28;20518;-67
2021/04/01 01:51:02;;;;;;;55.13;30.63;;;;;;;13.43;61.02;101527.72;5015270;28;20522;-66
2021/04/01 01:53:27;;;;;;;55.97;30.88;;;;;;;13.46;60.14;101527.69;5016737;28;20107;-66
2021/04/01 01:55:53;;;;;;;53.97;28.75;;;;;;;13.47;60.34;101524.19;5016402;28;20764;-67
2021/04/01 01:58:22;;;;;;;52.85;27.85;;;;;;;13.45;60.87;101532.91;5016216;28;20073;-66
2021/04/01 02:00:50;;;;;;;45.85;26.05;;;;;;;13.46;61.17;101526.81;5018860;28;20473;-67
2021/04/01 02:03:17;;;;;;;46.13;28.23;;;;;;;13.39;61.58;101523.44;5015446;28;20139;-66
2021/04/01 02:05:44;;;;;;;48.72;27.75;;;;;;;13.36;61.77;101532.16;5016600;28;20057;-66
2021/04/01 02:08:12;;;;;;;58.63;30.63;;;;;;;13.40;60.84;101519.09;5015893;28;20056;-68
2021/04/01 02:10:41;;;;;;;57.42;29.35;;;;;;;13.36;60.85;101521.72;5015096;28;20056;-66
2021/04/01 02:13:07;;;;;;;58.45;30.83;;;;;;;13.39;61.07;101520.81;5015215;28;20049;-66
2021/04/01 02:15:35;;;;;;;56.75;29.30;;;;;;;13.34;61.68;101515.66;5019326;28;20079;-65
2021/04/01 02:18:03;;;;;;;48.92;28.05;;;;;;;13.32;62.14;101514.84;5019390;28;20046;-66
2021/04/01 02:21:11;;;;;;;47.50;26.58;;;;;;;13.31;61.84;101515.72;5044468;22;20049;-67
2021/04/01 02:23:46;;;;;;;52.58;28.23;;;;;;;13.23;62.90;101507.13;5023460;28;20051;-68
2021/04/01 02:26:12;;;;;;;54.75;29.50;;;;;;;13.21;62.76;101514.16;5030677;28;20056;-69
2021/04/01 02:32:01;;;;;;;55.50;28.35;;;;;;;13.13;62.42;101510.81;5031440;28;20040;-67
2021/04/01 02:34:26;;;;;;;48.97;28.60;;;;;;;13.14;62.20;101509.91;5037547;28;20513;-69
2021/04/01 02:36:52;;;;;;;57.05;30.10;;;;;;;13.15;61.77;101514.25;5036574;28;20128;-68
2021/04/01 02:39:18;;;;;;;54.35;29.75;;;;;;;13.22;61.95;101506.28;5035512;28;20131;-68
2021/04/01 02:45:08;;;;;;;57.05;30.60;;;;;;;13.29;61.50;101494.00;5033016;28;20052;-68
2021/04/01 02:47:34;;;;;;;53.42;29.60;;;;;;;13.26;62.32;101503.63;5034453;28;20044;-70
2021/04/01 02:50:01;;;;;;;54.33;29.27;;;;;;;13.24;63.60;101502.78;5035757;28;20045;-68
2021/04/01 02:52:27;;;;;;;53.00;29.00;;;;;;;13.20;63.33;101495.00;5035592;28;20171;-68
2021/04/01 02:54:52;;;;;;;53.65;29.15;;;;;;;13.20;62.79;101496.78;5038476;28;20049;-69
2021/04/01 02:57:19;;;;;;;51.03;28.58;;;;;;;13.15;62.98;101493.38;5040116;28;20045;-70
2021/04/01 02:59:45;;;;;;;52.55;27.70;;;;;;;13.14;63.01;101494.25;5037629;28;20393;-67
2021/04/01 03:02:12;;;;;;;51.15;28.95;;;;;;;13.15;62.33;101498.59;5039222;28;20040;-68
2021/04/01 03:04:39;;;;;;;55.53;30.58;;;;;;;13.15;62.33;101495.97;5038770;28;20556;-67
2021/04/01 03:07:05;;;;;;;52.42;27.63;;;;;;;13.16;63.21;101497.69;5039192;28;20148;-68
2021/04/01 03:09:31;;;;;;;52.13;29.38;;;;;;;13.18;62.72;101494.16;5037517;28;20057;-68
2021/04/01 03:11:57;;;;;;;45.38;28.10;;;;;;;13.20;62.83;101494.16;5036756;28;20049;-68
2021/04/01 03:14:23;;;;;;;58.33;30.48;;;;;;;13.17;63.24;101500.31;5037128;28;20076;-69
2021/04/01 03:16:49;;;;;;;53.63;28.92;;;;;;;13.19;62.39;101505.50;5040172;28;20059;-68
2021/04/01 03:19:15;;;;;;;51.88;28.33;;;;;;;13.16;62.58;101503.81;5039007;28;20047;-68
2021/04/01 03:21:43;;;;;;;58.33;30.00;;;;;;;13.17;60.67;101510.75;5037036;28;20551;-68
2021/04/01 03:24:10;;;;;;;60.80;33.03;;;;;;;13.16;59.45;101508.16;5039016;28;20052;-68
2021/04/01 03:26:37;;;;;;;63.75;33.25;;;;;;;13.16;59.58;101513.38;5038123;28;20049;-68
2021/04/01 03:29:03;;;;;;;65.93;32.65;;;;;;;13.19;59.63;101518.56;5038942;28;20045;-69
2021/04/01 03:31:29;;;;;;;59.92;30.90;;;;;;;13.19;59.81;101522.00;5039078;28;20056;-67
2021/04/01 03:33:55;;;;;;;61.33;30.65;;;;;;;13.11;60.31;101530.88;5035857;28;20135;-68
2021/04/01 03:36:21;;;;;;;56.78;30.73;;;;;;;13.08;60.59;101526.56;5041095;28;20080;-67
2021/04/01 03:38:48;;;;;;;61.25;31.58;;;;;;;12.97;60.80;101523.28;5038271;28;20073;-70
2021/04/01 03:41:14;;;;;;;58.65;30.67;;;;;;;12.88;61.05;101530.34;5032830;28;20055;-67
2021/04/01 03:43:40;;;;;;;57.40;31.27;;;;;;;12.79;61.72;101520.06;5031678;28;20060;-68
2021/04/01 03:46:07;;;;;;;55.92;29.30;;;;;;;12.77;62.42;101527.09;5034660;28;20049;-68
2021/04/01 03:48:33;;;;;;;62.38;32.33;;;;;;;12.75;62.37;101524.47;5034498;28;20151;-68
2021/04/01 03:50:59;;;;;;;55.60;31.48;;;;;;;12.74;62.70;101522.75;5034852;28;20130;-67
2021/04/01 03:53:25;;;;;;;61.45;30.95;;;;;;;12.75;62.42;101524.47;5033807;28;20053;-69
2021/04/01 03:55:52;;;;;;;61.40;32.08;;;;;;;12.77;62.69;101526.22;5032068;28;20502;-70
2021/04/01 04:01:24;;;;;;;58.05;30.30;;;;;;;12.83;61.87;101531.31;5035780;28;20156;-68
2021/04/01 04:04:00;;;;;;;63.08;30.88;;;;;;;12.81;61.66;101539.19;5032392;28;20049;-69
2021/04/01 04:06:40;;;;;;;61.70;33.22;;;;;;;12.85;61.09;101540.00;5031251;28;20094;-67
2021/04/01 04:09:24;;;;;;;64.95;32.33;;;;;;;12.86;60.44;101539.13;5032620;28;20101;-67
2021/04/01 04:11:54;;;;;;;69.78;36.03;;;;;;;12.82;59.88;101535.69;5032583;28;20116;-68
2021/04/01 04:14:24;;;;;;;69.35;35.20;;;;;;;12.72;60.83;101535.00;5032212;28;20806;-68
2021/04/01 04:16:50;;;;;;;61.55;32.20;;;;;;;12.70;61.07;101541.97;5034564;28;20107;-70
2021/04/01 04:19:16;;;;;;;66.97;34.17;;;;;;;12.71;60.91;101542.81;5032591;28;20593;-70
2021/04/01 04:21:42;;;;;;;60.67;30.98;;;;;;;12.72;60.75;101540.22;5030167;28;20057;-68
2021/04/01 04:24:10;;;;;;;60.88;32.97;;;;;;;12.68;60.76;101543.75;5027801;28;20625;-67
2021/04/01 04:26:36;;;;;;;69.28;32.42;;;;;;;12.64;61.05;101546.41;5035130;28;20075;-69
2021/04/01 04:29:03;;;;;;;64.63;33.40;;;;;;;12.62;61.40;101545.56;5032095;28;20135;-69
2021/04/01 04:31:29;;;;;;;67.05;34.38;;;;;;;12.61;60.74;101552.56;5035742;28;20083;-68
2021/04/01 04:33:55;;;;;;;68.63;34.08;;;;;;;12.61;59.75;101547.34;5033011;28;20433;-69
2021/04/01 04:36:21;;;;;;;71.20;35.72;;;;;;;12.60;58.84;101550.81;5032552;28;20167;-67
2021/04/01 04:38:47;;;;;;;70.85;36.35;;;;;;;12.58;58.62;101548.22;5034246;28;20121;-68
2021/04/01 04:41:13;;;;;;;73.57;36.00;;;;;;;12.57;58.54;101545.66;5032261;28;20162;-67
2021/04/01 04:43:39;;;;;;;77.50;36.60;;;;;;;12.56;58.58;101556.97;5033495;28;20076;-67
2021/04/01 04:46:06;;;;;;;75.63;36.42;;;;;;;12.51;57.99;101562.25;5034365;28;20171;-68
2021/04/01 04:48:32;;;;;;;74.47;36.92;;;;;;;12.43;58.24;101567.56;5032206;28;20053;-68
2021/04/01 04:50:58;;;;;;;76.65;36.30;;;;;;;12.33;58.74;101567.72;5032267;28;20290;-66
2021/04/01 04:53:25;;;;;;;71.72;36.38;;;;;;;12.22;59.39;101576.53;5031892;28;20567;-66
2021/04/01 04:56:01;;;;;;;73.25;35.00;;;;;;;12.12;59.87;101575.81;5038047;28;20501;-68
2021/04/01 04:58:33;;;;;;;67.18;34.25;;;;;;;12.07;60.38;101582.81;5036657;28;20128;-67
2021/04/01 05:01:05;;;;;;;71.93;33.92;;;;;;;11.96;60.75;101588.13;5034950;28;20052;-66
2021/04/01 05:06:28;;;;;;;74.90;33.95;;;;;;;11.92;61.62;101577.75;5002355;28;20142;-68
2021/04/01 05:08:54;;;;;;;66.95;33.70;;;;;;;11.81;61.79;101583.06;5036066;28;20049;-66
2021/04/01 05:11:20;;;;;;;70.32;35.83;;;;;;;11.86;61.67;101577.81;5037522;28;20927;-67
2021/04/01 05:13:46;;;;;;;67.65;34.92;;;;;;;11.84;61.38;101577.84;5033564;28;20061;-68
2021/04/01 05:16:12;;;;;;;70.28;34.35;;;;;;;11.82;61.66;101576.97;5037976;28;20075;-65
2021/04/01 05:18:39;;;;;;;70.70;35.15;;;;;;;11.85;61.22;101582.16;5037089;28;20053;-67
2021/04/01 05:21:07;;;;;;;78.28;36.72;;;;;;;11.87;61.36;101583.03;5035291;28;20049;-67
2021/04/01 05:23:35;;;;;;;73.53;36.83;;;;;;;11.91;61.08;101587.31;5036004;28;20085;-67
2021/04/01 05:28:48;;;;;;;81.88;37.20;;;;;;;11.96;60.81;101597.69;5034412;28;20064;-66
2021/04/01 05:31:15;;;;;;;71.10;36.00;;;;;;;11.94;61.21;101599.44;5036672;28;21376;-68
2021/04/01 05:33:46;;;;;;;77.47;36.17;;;;;;;11.94;61.02;101602.03;5035440;28;20133;-68
2021/04/01 05:36:16;;;;;;;71.35;35.13;;;;;;;11.92;61.28;101609.03;5039029;28;20053;-67
2021/04/01 05:38:42;;;;;;;72.68;34.65;;;;;;;11.97;61.40;101610.75;5038168;28;20096;-67
2021/04/01 05:41:09;;;;;;;69.15;36.63;;;;;;;11.96;61.26;101610.72;5035606;28;20057;-67
2021/04/01 05:43:39;;;;;;;67.90;35.90;;;;;;;12.02;61.01;101613.31;5033510;28;20048;-65
2021/04/01 05:46:11;;;;;;;77.43;36.42;;;;;;;12.04;60.69;101615.88;5036382;28;20395;-66
2021/04/01 05:48:44;;;;;;;73.75;38.20;;;;;;;12.03;60.71;101619.38;5037848;28;20132;-66
2021/04/01 05:51:33;;;;;;;73.00;36.97;;;;;;;12.04;60.59;101616.75;5035154;28;20076;-67
2021/04/01 05:57:07;;;;;;;73.93;36.70;;;;;;;12.03;61.17;101608.94;5035510;28;20207;-66
2021/04/01 06:00:11;;;;;;;72.18;35.13;;;;;;;12.03;61.80;101612.41;5035521;28;20049;-67
2021/04/01 06:02:48;;;;;;;68.13;35.00;;;;;;;12.02;62.71;101612.44;5035348;28;20049;-67
2021/04/01 06:05:21;;;;;;;76.18;38.53;;;;;;;12.02;62.93;101612.44;5032437;28;20140;-68
2021/04/01 06:07:52;;;;;;;69.18;33.72;;;;;;;12.13;62.75;101611.41;5036208;28;20076;-66
2021/04/01 06:10:20;;;;;;;70.82;34.83;;;;;;;12.19;62.53;101607.03;5036788;28;20045;-67
2021/04/01 06:12:46;;;;;;;72.38;35.65;;;;;;;12.21;62.09;101608.72;5037119;28;20628;-64
2021/04/01 06:15:12;;;;;;;78.20;38.13;;;;;;;12.25;62.86;101604.31;5035612;28;20103;-67
2021/04/01 06:17:46;;;;;;;75.72;34.90;;;;;;;12.31;62.48;101612.09;5034712;28;20110;-67
2021/04/01 06:20:13;;;;;;;71.57;36.30;;;;;;;12.38;62.29;101598.09;5035927;28;20053;-66
2021/04/01 06:22:41;;;;;;;69.30;35.60;;;;;;;12.40;62.41;101598.94;5035851;28;20415;-68
2021/04/01 06:25:12;;;;;;;80.15;37.15;;;;;;;12.46;62.10;101594.50;5035787;28;20061;-67
2021/04/01 06:27:42;;;;;;;74.90;36.25;;;;;;;12.48;62.21;101595.34;5039290;28;20053;-69
2021/04/01 06:30:11;;;;;;;78.00;35.90;;;;;;;12.55;62.02;101610.03;5039033;28;20045;-65
2021/04/01 06:32:41;;;;;;;74.55;37.53;;;;;;;12.65;61.08;101606.41;5035766;28;20057;-66
2021/04/01 06:35:13;;;;;;;73.60;37.47;;;;;;;12.73;60.92;101601.94;5040416;28;20135;-66
2021/04/01 06:37:59;;;;;;;74.18;37.17;;;;;;;12.74;61.58;101601.06;5041398;28;20053;-65
2021/04/01 06:40:26;;;;;;;77.70;35.70;;;;;;;12.80;61.73;101604.50;5038630;28;20415;-66
2021/04/01 06:42:57;;;;;;;74.20;37.17;;;;;;;12.86;60.84;101604.38;5036727;28;20052;-67
2021/04/01 06:45:28;;;;;;;74.43;37.28;;;;;;;12.94;60.68;101602.53;5035052;28;20442;-66
2021/04/01 06:47:56;;;;;;;78.68;36.45;;;;;;;13.05;60.27;101610.22;5040512;28;20053;-67
2021/04/01 06:50:25;;;;;;;76.07;37.80;;;;;;;13.13;59.72;101612.69;5039009;28;20053;-69
2021/04/01 06:52:58;;;;;;;76.70;40.30;;;;;;;13.17;59.37;101610.03;5039869;28;20072;-68
2021/04/01 06:55:30;;;;;;;75.65;39.50;;;;;;;13.22;59.56;101613.41;5039369;28;20045;-68
2021/04/01 06:58:08;;;;;;;80.38;40.35;;;;;;;13.29;59.46;101613.28;5041037;28;20052;-67
2021/04/01 07:00:56;;;;;;;78.25;40.25;;;;;;;13.40;58.70;101618.41;5039457;28;20084;-67
2021/04/01 07:03:25;;;;;;;77.50;38.47;;;;;;;13.54;57.91;101619.00;5037267;28;20052;-65
2021/04/01 07:05:55;;;;;;;74.70;37.80;;;;;;;13.63;56.64;101623.22;5036415;28;20052;-65
2021/04/01 07:08:33;;;;;;;80.95;40.65;;;;;;;13.66;56.13;101618.78;5037140;28;20136;-67
2021/04/01 07:11:01;;;;;;;77.28;40.95;;;;;;;13.74;56.24;101623.00;5039143;28;20068;-69
2021/04/01 07:13:30;;;;;;;56.47;28.50;;;;;;;13.92;58.84;101625.31;5038040;28;20045;-68
2021/04/01 07:16:08;;;;;;;53.65;25.67;;;;;;;14.21;59.39;101636.97;5038472;28;20053;-67
2021/04/01 07:18:56;;;;;;;77.72;37.95;;;;;;;14.41;56.03;101646.16;5035366;28;20045;-67
2021/04/01 07:34:33;;;;;;;81.22;39.67;;;;;;;14.99;53.12;101649.28;5035020;28;20119;-69
2021/04/01 07:36:00;;;;;;;83.22;38.53;;;;;;;15.13;53.06;101635.00;5037287;28;20053;-66
2021/04/01 07:46:52;;;;;;;75.57;35.65;;;;;;;15.94;52.04;101625.97;5039361;28;20544;-69
2021/04/01 07:49:22;;;;;;;76.78;38.72;;;;;;;15.88;50.14;101626.16;5035296;28;20529;-65
2021/04/01 07:52:10;;;;;;;78.68;39.05;;;;;;;15.92;50.31;101627.78;5035841;28;20587;-66
2021/04/01 07:54:46;;;;;;;81.43;42.63;;;;;;;15.73;51.03;101638.72;5032279;28;20056;-67
2021/04/01 07:57:41;;;;;;;78.82;38.33;;;;;;;15.43;49.77;101630.75;5036760;28;20464;-66
2021/04/01 08:00:15;;;;;;;84.35;41.63;;;;;;;15.21;50.97;101636.56;5039165;28;20403;-67
2021/04/01 08:02:58;;;;;;;82.55;41.47;;;;;;;15.05;51.01;101637.78;5039462;28;20057;-64
2021/04/01 08:05:28;;;;;;;87.15;42.47;;;;;;;14.98;51.75;101638.84;5038777;28;20057;-67
2021/04/01 08:07:57;;;;;;;83.60;40.38;;;;;;;14.90;52.43;101641.63;5047792;28;20049;-67
2021/04/01 08:10:28;;;;;;;89.53;40.95;;;;;;;14.88;51.68;101649.53;5039808;28;20123;-67
2021/04/01 08:13:01;;;;;;;82.90;40.65;;;;;;;14.79;52.92;101641.88;5041899;28;20052;-67
2021/04/01 08:15:34;;;;;;;83.90;39.85;;;;;;;14.89;52.19;101645.13;5037084;28;20502;-69
2021/04/01 08:18:08;;;;;;;85.32;40.72;;;;;;;14.93;52.41;101646.81;5047367;28;20475;-66
2021/04/01 08:20:36;;;;;;;79.33;40.17;;;;;;;15.09;52.00;101636.84;5038872;28;20127;-69
2021/04/01 08:23:06;;;;;;;87.45;41.05;;;;;;;15.17;51.46;101639.28;5038027;28;20057;-67
2021/04/01 08:25:39;;;;;;;91.55;41.97;;;;;;;15.18;51.43;101641.84;5038452;28;20098;-68
2021/04/01 08:34:13;;;;;;;81.50;38.47;;;;;;;15.34;47.17;101652.84;4974827;28;20085;-68
2021/04/01 08:36:43;;;;;;;89.45;39.38;;;;;;;15.27;48.17;101660.88;4995288;28;20053;-68
2021/04/01 08:39:09;;;;;;;86.22;37.03;;;;;;;15.36;49.12;101664.16;5043597;28;20087;-65
2021/04/01 08:42:08;;;;;;;85.45;39.22;;;;;;;15.43;49.20;101662.22;5045976;28;20067;-65
2021/04/01 08:45:21;;;;;;;87.63;37.58;;;;;;;15.68;50.33;101658.97;5043562;28;20044;-62
2021/04/01 08:48:02;;;;;;;86.95;38.95;;;;;;;15.80;48.92;101665.66;4959995;28;20059;-64
2021/04/01 08:50:35;;;;;;;80.88;37.55;;;;;;;15.87;48.64;101688.25;4963745;28;20054;-64
2021/04/01 08:53:34;;;;;;;92.00;40.03;;;;;;;15.85;49.06;101672.53;5016157;28;20091;-64
2021/04/01 08:56:16;;;;;;;87.60;39.63;;;;;;;15.78;49.20;101663.09;4968333;28;20062;-64
2021/04/01 08:58:51;;;;;;;88.93;39.78;;;;;;;15.98;49.41;101664.34;5035917;28;20049;-65
2021/04/01 09:01:42;;;;;;;96.95;42.08;;;;;;;16.19;48.82;101662.03;5041867;28;20056;-64
2021/04/01 09:04:10;;;;;;;84.13;39.30;;;;;;;16.31;48.63;101661.72;5044768;28;20088;-65
2021/04/01 09:06:39;;;;;;;95.85;42.75;;;;;;;16.30;47.79;101662.59;5045253;28;20429;-65
2021/04/01 09:09:38;;;;;;;91.85;40.42;;;;;;;16.37;47.76;101665.91;5042445;28;20044;-65
2021/04/01 09:19:27;;;;;;;101.80;42.97;;;;;;;16.51;47.38;101653.22;5041486;28;20178;-62
2021/04/01 09:21:53;;;;;;;98.97;43.90;;;;;;;16.38;46.93;101659.75;5037482;28;20451;-66
2021/04/01 09:31:04;;;;;;;114.68;48.42;;;;;;;16.10;48.08;101679.78;5040545;28;20056;-64
2021/04/01 09:33:32;;;;;;;106.68;47.65;;;;;;;16.05;48.86;101672.94;5045914;28;20045;-65
2021/04/01 09:36:10;;;;;;;108.88;46.50;;;;;;;15.99;49.49;101671.31;5040667;28;20103;-65
2021/04/01 09:38:38;;;;;;;112.22;49.38;;;;;;;16.07;49.51;101671.97;5037602;28;20478;-65
2021/04/01 09:41:04;;;;;;;113.07;45.58;;;;;;;16.07;49.40;101664.09;5049258;28;20055;-65
2021/04/01 09:43:30;;;;;;;100.43;44.22;;;;;;;16.15;49.64;101669.16;5042867;28;20045;-66
2021/04/01 09:46:08;;;;;;;114.40;48.00;;;;;;;16.21;49.35;101665.50;5041883;28;20131;-62
2021/04/01 09:48:37;;;;;;;110.43;48.42;;;;;;;16.22;49.72;101667.22;5044058;28;20053;-64
2021/04/01 09:51:18;;;;;;;114.07;48.50;;;;;;;16.17;49.16;101670.81;5053253;28;20117;-67
2021/04/01 09:53:50;;;;;;;111.00;45.97;;;;;;;16.37;48.10;101666.78;5038837;28;20053;-64
2021/04/01 09:56:22;;;;;;;115.35;45.13;;;;;;;16.37;46.95;101679.06;5040639;28;20048;-63
2021/04/01 09:58:50;;;;;;;104.50;42.83;;;;;;;16.43;47.08;101671.84;5042582;28;20139;-65
2021/04/01 10:01:30;;;;;;;111.22;45.47;;;;;;;16.44;46.87;101663.06;5039336;28;20140;-62
2021/04/01 10:04:04;;;;;;;109.43;43.78;;;;;;;16.46;46.59;101674.38;5043797;28;20045;-66
2021/04/01 10:06:37;;;;;;;99.60;43.40;;;;;;;16.46;46.85;101676.16;5045594;28;20473;-64
2021/04/01 10:09:12;;;;;;;97.50;40.75;;;;;;;16.57;46.65;101668.81;5045802;28;20049;-65
2021/04/01 10:11:43;;;;;;;98.75;40.08;;;;;;;16.52;46.62;101670.72;5042070;28;20088;-66
2021/04/01 10:14:11;;;;;;;96.30;41.33;;;;;;;16.53;46.63;101676.81;5045659;28;20406;-66
2021/04/01 10:16:49;;;;;;;94.93;39.72;;;;;;;16.56;47.31;101672.34;5042425;28;20053;-66
2021/04/01 10:19:16;;;;;;;99.80;42.38;;;;;;;16.62;47.37;101672.16;5048015;28;20510;-63
2021/04/01 10:21:45;;;;;;;94.18;41.47;;;;;;;16.57;47.53;101679.31;5048785;28;20139;-66
2021/04/01 10:24:22;;;;;;;97.30;41.35;;;;;;;16.56;47.76;101675.00;5050321;28;20049;-67
2021/04/01 10:26:55;;;;;;;94.35;40.72;;;;;;;16.63;48.07;101678.25;5042773;28;20507;-66
2021/04/01 10:29:29;;;;;;;93.90;40.63;;;;;;;16.66;48.12;101672.94;5038692;28;20049;-67
2021/04/01 10:31:56;;;;;;;97.47;41.23;;;;;;;16.74;47.92;101670.94;5042687;28;20053;-66
2021/04/01 10:34:33;;;;;;;88.43;39.55;;;;;;;16.77;47.47;101683.97;5044607;28;20307;-64
2021/04/01 10:37:04;;;;;;;89.90;39.25;;;;;;;16.76;47.06;101679.63;5058500;28;20045;-66
2021/04/01 10:39:33;;;;;;;90.72;39.53;;;;;;;16.92;47.01;101673.91;5048977;28;20083;-66
2021/04/01 10:42:00;;;;;;;81.00;35.67;;;;;;;16.82;44.18;101678.59;5047481;28;20041;-66
2021/04/01 10:44:26;;;;;;;78.85;34.88;;;;;;;16.92;45.37;101676.53;5043632;28;20041;-63
2021/04/01 10:46:55;;;;;;;87.68;36.38;;;;;;;16.99;44.58;101682.50;5043902;28;20041;-62
2021/04/01 10:49:23;;;;;;;94.90;38.22;;;;;;;17.05;43.67;101685.78;5049803;28;20048;-64
2021/04/01 10:51:53;;;;;;;84.90;37.50;;;;;;;17.05;44.18;101691.06;5052108;28;20048;-65
2021/04/01 10:54:21;;;;;;;85.97;37.75;;;;;;;17.06;45.17;101686.66;5048627;28;20049;-67
2021/04/01 10:56:49;;;;;;;83.68;38.58;;;;;;;17.06;45.45;101698.03;5045256;28;20049;-66
2021/04/01 10:59:15;;;;;;;93.38;42.38;;;;;;;16.91;46.37;101688.81;5048559;28;20148;-65
2021/04/01 11:01:43;;;;;;;88.93;42.10;;;;;;;16.94;47.74;101694.03;5043364;28;20076;-67
2021/04/01 11:04:12;;;;;;;89.65;41.97;;;;;;;16.86;48.31;101706.50;5049609;28;20052;-65
2021/04/01 11:06:41;;;;;;;90.35;43.88;;;;;;;16.82;48.73;101709.28;5041768;28;20061;-67
2021/04/01 11:09:10;;;;;;;95.72;46.38;;;;;;;16.66;49.65;101703.59;5043209;28;20099;-66
2021/04/01 11:11:56;;;;;;;93.15;46.20;;;;;;;16.61;49.57;101707.22;5044504;28;20053;-65
2021/04/01 11:14:23;;;;;;;92.75;45.40;;;;;;;16.68;50.45;101702.66;5042756;28;20049;-63
2021/04/01 11:16:51;;;;;;;96.35;48.17;;;;;;;16.71;50.30;101712.19;5045185;28;20045;-64
2021/04/01 11:19:18;;;;;;;94.45;46.03;;;;;;;16.70;50.42;101713.09;5042828;28;20145;-64
2021/04/01 11:21:45;;;;;;;100.22;48.25;;;;;;;16.72;50.82;101709.53;5045073;28;20136;-66
2021/04/01 11:24:11;;;;;;;97.75;50.28;;;;;;;16.66;50.44;101707.09;5041782;28;20045;-65
2021/04/01 11:26:39;;;;;;;95.90;48.65;;;;;;;16.64;50.84;101714.13;5040448;28;20058;-67
2021/04/01 11:29:11;;;;;;;96.28;48.30;;;;;;;16.65;50.82;101710.63;5044262;28;20052;-65
2021/04/01 11:31:38;;;;;;;98.40;49.33;;;;;;;16.64;50.84;101706.25;5047891;28;20091;-66
2021/04/01 11:34:05;;;;;;;103.45;51.25;;;;;;;16.67;50.64;101713.22;5042712;28;20041;-65
2021/04/01 11:36:37;;;;;;;104.32;53.20;;;;;;;16.46;51.00;101724.28;5047577;28;20045;-63
2021/04/01 11:39:13;;;;;;;102.68;50.50;;;;;;;16.50;51.54;101713.69;5043893;28;20053;-65
2021/04/01 11:41:46;;;;;;;105.00;53.83;;;;;;;16.42;51.12;101717.38;5040685;28;20057;-66
2021/04/01 11:44:12;;;;;;;104.97;53.65;;;;;;;16.57;50.17;101720.47;5041199;28;20426;-65
2021/04/01 11:46:41;;;;;;;100.72;53.85;;;;;;;16.56;50.25;101718.75;5040984;28;20049;-65
2021/04/01 11:49:08;;;;;;;100.80;52.60;;;;;;;16.67;49.39;101721.94;5046670;28;20132;-65
2021/04/01 11:51:36;;;;;;;111.00;53.95;;;;;;;16.54;49.57;101716.19;5043782;28;20060;-62
2021/04/01 11:54:02;;;;;;;111.22;56.15;;;;;;;16.30;50.23;101728.25;5043845;28;20048;-65
2021/04/01 11:56:35;;;;;;;98.35;50.85;;;;;;;16.11;48.86;101718.25;5044060;28;20528;-64
2021/04/01 11:59:08;;;;;;;100.15;51.85;;;;;;;16.17;49.15;101720.69;5043273;28;20057;-65
2021/04/01 12:01:36;;;;;;;97.40;52.33;;;;;;;16.20;49.38;101732.88;5038889;28;20080;-65
2021/04/01 12:04:04;;;;;;;101.40;53.67;;;;;;;16.17;49.96;101725.06;5041350;28;20049;-65
2021/04/01 12:06:31;;;;;;;103.75;54.58;;;;;;;16.29;50.36;101718.63;5049557;28;20051;-65
2021/04/01 12:08:58;;;;;;;103.90;53.95;;;;;;;16.22;50.63;101722.34;5042522;28;20061;-68
2021/04/01 12:11:25;;;;;;;97.50;53.45;;;;;;;16.11;50.48;101728.75;5042092;28;20045;-65
2021/04/01 12:13:51;;;;;;;98.18;51.83;;;;;;;16.26;49.99;101723.97;5046629;28;20057;-65
2021/04/01 12:16:20;;;;;;;90.53;47.78;;;;;;;16.21;49.53;101726.72;5039033;28;20041;-66
2021/04/01 12:21:16;;;;;;;96.78;50.80;;;;;;;15.98;51.42;101728.19;5041386;22;20432;-61
2021/04/01 12:23:44;;;;;;;92.20;50.47;;;;;;;16.08;52.51;101727.94;5022678;28;20045;-61
2021/04/01 12:26:11;;;;;;;88.07;48.58;;;;;;;15.96;52.72;101722.13;5019275;28;20064;-62
2021/04/01 12:29:23;;;;;;;80.13;42.47;;;;;;;16.04;52.54;101721.06;5025798;28;20052;-62
2021/04/01 12:31:55;;;;;;;59.97;32.83;;;;;;;16.16;50.76;101734.72;5007766;28;20243;-63
2021/04/01 12:34:27;;;;;;;61.25;32.13;;;;;;;16.15;50.33;101743.50;5009569;28;20081;-65
2021/04/01 12:36:54;;;;;;;63.65;29.38;;;;;;;16.20;50.19;101734.66;4999962;28;20084;-62
2021/04/01 12:39:29;;;;;;;52.50;27.58;;;;;;;16.32;50.05;101731.66;5003968;28;20089;-62